Terminal Aerodrome Forecast
Issued by NWS

Home | Current Version | Previous Version | Text Only | Print | Product List | Glossary On
Versions: 1 2 3 4 5 6 7 8 9 10 11 12 13 14 15
412
FTUS44 KEPZ 290542
TAFDMN
TAF
KDMN 290542Z 2906/3006 06006KT P6SM FEW060 SCT120
     FM291800 09010G17KT P6SM VCTS SCT040CB BKN100=

USA.gov is the U.S. government's official web portal to all federal, state and local government web resources and services.